Cezanne — H3NH — position and weather

sailwx.info

Track history (hours):
 
Tides and Currents Weather Stations Pressure Air Temp Water Temp Dewpoint Dewpoint Depression Visibility Wind Speed Wind Dir Waves Ship Positions

Cezanne

Last reported at 2018-Jun-21 12:40 UTC. Time now 2018-Jun-22 13:28 UTC.
Position N 24°09' E 119°00'.

Length 300 m; draft 10.1 m.

Type: Cargo ship. MMSI: 353300000.

Date/timePositionNaut miles runAvg speedWind from/ knotsBaromVisibWave heightAir tempDewpointWater temp
2018-Jun-21 12:40N 24°09' E 119°00'316.0
2018-Jun-21 12:30N 24°07' E 118°58'1215.6
2018-Jun-21 11:42N 23°60' E 118°47'415.7
2018-Jun-21 11:27N 23°57' E 118°44'1814.7
2018-Jun-21 10:12N 23°44' E 118°30'314.8
2018-Jun-21 10:00N 23°42' E 118°27'1814.9
2018-Jun-21 08:46N 23°32' E 118°11'915.7
2018-Jun-21 08:12N 23°27' E 118°03'515.7
2018-Jun-21 07:54N 23°24' E 117°58'615.8
2018-Jun-21 07:30N 23°21' E 117°53'815.7
2018-Jun-21 07:00N 23°17' E 117°45'815.7
2018-Jun-21 06:29N 23°12' E 117°38'20213.2
2018-Jun-20 15:10N 22°20' E 114°07'0 0.0
2018-Jun-20 14:57N 22°20' E 114°07'  
2018-Jun-15 19:47N 01°40' E 104°43'617.4
2018-Jun-15 19:25N 01°35' E 104°39'917.5
2018-Jun-15 18:55N 01°28' E 104°33'819.1
2018-Jun-15 18:29N 01°23' E 104°27'918.5
2018-Jun-15 18:00N 01°18' E 104°20'918.1
2018-Jun-15 17:30N 01°16' E 104°11'917.7
2018-Jun-15 17:00N 01°15' E 104°02'816.6
2018-Jun-15 16:31N 01°13' E 103°54'611.5
2018-Jun-15 16:00N 01°13' E 103°48'5 9.9
2018-Jun-15 15:30N 01°16' E 103°45'1 1.9
2018-Jun-15 15:00N 01°17' E 103°46'0 0.0
2018-Jun-15 14:31N 01°17' E 103°46'0 0.0
2018-Jun-15 13:58N 01°17' E 103°46'0 0.1
2018-Jun-15 13:26N 01°17' E 103°46'0 0.1
2018-Jun-15 12:59N 01°17' E 103°46'0 0.1
2018-Jun-15 12:28N 01°17' E 103°46'0 0.1
2018-Jun-15 11:58N 01°17' E 103°46'0 0.0
2018-Jun-15 11:29N 01°17' E 103°46'0 0.0
2018-Jun-15 10:59N 01°17' E 103°46'0 0.0
2018-Jun-15 10:26N 01°17' E 103°46'0 0.0
2018-Jun-15 09:58N 01°17' E 103°46'0 0.0
2018-Jun-15 09:28N 01°17' E 103°46'0 0.0
2018-Jun-15 08:58N 01°17' E 103°46'0 0.0
2018-Jun-15 08:29N 01°17' E 103°46'0 0.0
2018-Jun-15 07:59N 01°17' E 103°46'0 0.0
2018-Jun-15 07:28N 01°17' E 103°46'0 0.0
2018-Jun-15 06:52N 01°17' E 103°46'0 0.0
2018-Jun-15 06:29N 01°17' E 103°46'0 0.0
2018-Jun-15 05:58N 01°17' E 103°46'0 0.1
2018-Jun-15 05:29N 01°17' E 103°46'0 0.1
2018-Jun-15 04:56N 01°17' E 103°46'0 0.0
2018-Jun-15 04:28N 01°17' E 103°46'0 0.0
2018-Jun-15 03:56N 01°17' E 103°46'0 0.0
2018-Jun-15 03:28N 01°17' E 103°46'0 0.0
2018-Jun-15 02:53N 01°17' E 103°46'0 0.0
2018-Jun-15 02:29N 01°17' E 103°46'0 0.0
2018-Jun-15 01:58N 01°17' E 103°46'0 0.0
2018-Jun-15 01:28N 01°17' E 103°46'0 0.0
2018-Jun-15 00:58N 01°17' E 103°46'0 0.1
2018-Jun-15 00:28N 01°17' E 103°46'0 0.0
2018-Jun-14 23:58N 01°17' E 103°46'0 0.1
2018-Jun-14 23:28N 01°17' E 103°46'0 0.0
2018-Jun-14 22:59N 01°17' E 103°46'0 0.0
2018-Jun-14 22:28N 01°17' E 103°46'0 0.0
2018-Jun-14 21:59N 01°17' E 103°46'0 0.1
2018-Jun-14 21:25N 01°17' E 103°46'0 0.0
2018-Jun-14 20:59N 01°17' E 103°46'0 0.0
2018-Jun-14 20:28N 01°17' E 103°46'0 0.1
2018-Jun-14 19:59N 01°17' E 103°46'0 0.1
2018-Jun-14 19:29N 01°17' E 103°46'0 0.1
2018-Jun-14 18:59N 01°17' E 103°46'0 0.0
2018-Jun-14 18:29N 01°17' E 103°46'0 0.1
2018-Jun-14 17:59N 01°17' E 103°46'0 0.1
2018-Jun-14 17:26N 01°17' E 103°46'0 0.0
2018-Jun-14 16:59N 01°17' E 103°46'0 0.1
2018-Jun-14 16:29N 01°17' E 103°46'0 0.3
2018-Jun-14 16:00N 01°17' E 103°46'1 1.8
2018-Jun-14 15:30N 01°17' E 103°45'2 4.7
2018-Jun-14 15:00N 01°15' E 103°46'611.5
2018-Jun-14 14:30N 01°13' E 103°40'510.5
2018-Jun-14 14:00N 01°12' E 103°35'4 8.5
2018-Jun-14 13:30N 01°11' E 103°31'5 9.9
2018-Jun-14 13:00N 01°11' E 103°26'713.6
2018-Jun-14 12:31N 01°15' E 103°21'611.9
2018-Jun-14 11:59N 01°19' E 103°16'1313.0
2018-Jun-14 10:59N 01°26' E 103°05'  
Track history (hours):
 
Tides and Currents Weather Stations Pressure Air Temp Water Temp Dewpoint Dewpoint Depression Visibility Wind Speed Wind Dir Waves Ship Positions

Cezanne

Last reported at 2018-Jun-21 12:40 UTC. Time now 2018-Jun-22 13:28 UTC.
Position N 24°09' E 119°00'.

Length 300 m; draft 10.1 m.

Type: Cargo ship. MMSI: 353300000.

Date/timePositionNaut miles runAvg speedWind from/ knotsBaromVisibWave heightAir tempDewpointWater temp
2018-Jun-21 12:40N 24°09' E 119°00'316.0
2018-Jun-21 12:30N 24°07' E 118°58'1215.6
2018-Jun-21 11:42N 23°60' E 118°47'415.7
2018-Jun-21 11:27N 23°57' E 118°44'1814.7
2018-Jun-21 10:12N 23°44' E 118°30'314.8
2018-Jun-21 10:00N 23°42' E 118°27'1814.9
2018-Jun-21 08:46N 23°32' E 118°11'915.7
2018-Jun-21 08:12N 23°27' E 118°03'515.7
2018-Jun-21 07:54N 23°24' E 117°58'615.8
2018-Jun-21 07:30N 23°21' E 117°53'815.7
2018-Jun-21 07:00N 23°17' E 117°45'815.7
2018-Jun-21 06:29N 23°12' E 117°38'20213.2
2018-Jun-20 15:10N 22°20' E 114°07'0 0.0
2018-Jun-20 14:57N 22°20' E 114°07'  
2018-Jun-15 19:47N 01°40' E 104°43'617.4
2018-Jun-15 19:25N 01°35' E 104°39'917.5
2018-Jun-15 18:55N 01°28' E 104°33'819.1
2018-Jun-15 18:29N 01°23' E 104°27'918.5
2018-Jun-15 18:00N 01°18' E 104°20'918.1
2018-Jun-15 17:30N 01°16' E 104°11'917.7
2018-Jun-15 17:00N 01°15' E 104°02'816.6
2018-Jun-15 16:31N 01°13' E 103°54'611.5
2018-Jun-15 16:00N 01°13' E 103°48'5 9.9
2018-Jun-15 15:30N 01°16' E 103°45'1 1.9
2018-Jun-15 15:00N 01°17' E 103°46'0 0.0
2018-Jun-15 14:31N 01°17' E 103°46'0 0.0
2018-Jun-15 13:58N 01°17' E 103°46'0 0.1
2018-Jun-15 13:26N 01°17' E 103°46'0 0.1
2018-Jun-15 12:59N 01°17' E 103°46'0 0.1
2018-Jun-15 12:28N 01°17' E 103°46'0 0.1
2018-Jun-15 11:58N 01°17' E 103°46'0 0.0
2018-Jun-15 11:29N 01°17' E 103°46'0 0.0
2018-Jun-15 10:59N 01°17' E 103°46'0 0.0
2018-Jun-15 10:26N 01°17' E 103°46'0 0.0
2018-Jun-15 09:58N 01°17' E 103°46'0 0.0
2018-Jun-15 09:28N 01°17' E 103°46'0 0.0
2018-Jun-15 08:58N 01°17' E 103°46'0 0.0
2018-Jun-15 08:29N 01°17' E 103°46'0 0.0
2018-Jun-15 07:59N 01°17' E 103°46'0 0.0
2018-Jun-15 07:28N 01°17' E 103°46'0 0.0
2018-Jun-15 06:52N 01°17' E 103°46'0 0.0
2018-Jun-15 06:29N 01°17' E 103°46'0 0.0
2018-Jun-15 05:58N 01°17' E 103°46'0 0.1
2018-Jun-15 05:29N 01°17' E 103°46'0 0.1
2018-Jun-15 04:56N 01°17' E 103°46'0 0.0
2018-Jun-15 04:28N 01°17' E 103°46'0 0.0
2018-Jun-15 03:56N 01°17' E 103°46'0 0.0
2018-Jun-15 03:28N 01°17' E 103°46'0 0.0
2018-Jun-15 02:53N 01°17' E 103°46'0 0.0
2018-Jun-15 02:29N 01°17' E 103°46'0 0.0
2018-Jun-15 01:58N 01°17' E 103°46'0 0.0
2018-Jun-15 01:28N 01°17' E 103°46'0 0.0
2018-Jun-15 00:58N 01°17' E 103°46'0 0.1
2018-Jun-15 00:28N 01°17' E 103°46'0 0.0
2018-Jun-14 23:58N 01°17' E 103°46'0 0.1
2018-Jun-14 23:28N 01°17' E 103°46'0 0.0
2018-Jun-14 22:59N 01°17' E 103°46'0 0.0
2018-Jun-14 22:28N 01°17' E 103°46'0 0.0
2018-Jun-14 21:59N 01°17' E 103°46'0 0.1
2018-Jun-14 21:25N 01°17' E 103°46'0 0.0
2018-Jun-14 20:59N 01°17' E 103°46'0 0.0
2018-Jun-14 20:28N 01°17' E 103°46'0 0.1
2018-Jun-14 19:59N 01°17' E 103°46'0 0.1
2018-Jun-14 19:29N 01°17' E 103°46'0 0.1
2018-Jun-14 18:59N 01°17' E 103°46'0 0.0
2018-Jun-14 18:29N 01°17' E 103°46'0 0.1
2018-Jun-14 17:59N 01°17' E 103°46'0 0.1
2018-Jun-14 17:26N 01°17' E 103°46'0 0.0
2018-Jun-14 16:59N 01°17' E 103°46'0 0.1
2018-Jun-14 16:29N 01°17' E 103°46'0 0.3
2018-Jun-14 16:00N 01°17' E 103°46'1 1.8
2018-Jun-14 15:30N 01°17' E 103°45'2 4.7
2018-Jun-14 15:00N 01°15' E 103°46'611.5
2018-Jun-14 14:30N 01°13' E 103°40'510.5
2018-Jun-14 14:00N 01°12' E 103°35'4 8.5
2018-Jun-14 13:30N 01°11' E 103°31'5 9.9
2018-Jun-14 13:00N 01°11' E 103°26'713.6
2018-Jun-14 12:31N 01°15' E 103°21'611.9
2018-Jun-14 11:59N 01°19' E 103°16'1313.0
2018-Jun-14 10:59N 01°26' E 103°05'  

Dump ship's entire track history